»·PEaware :: EAL2291 KPHX-KBUR

EAL2291 :: KPHX-KBUR

FLIGHT INFORMATION

Flight Status: Arrived
Operator:
Eastern Air Lines
More flights by this operator :: More flights under this callsign
Pilot: Dave P. (45)
Aircraft: BOEING 737-800
(B738)
More flights by this aircraft type
Origin: KPHX Phoenix Sky Harbor Intl
United States
Destination: KBUR Bob Hope-Burbank
United States
More flights between these airports :: More routes between these airports
Route: +MAYSA5 JKPOT EED JANNY3
File this flight plan on PilotEdge
Remarks: PBN / A1B1C1D1S1S2 NAV / RNVD1E2A1 REG / N738PM EET / KZLA0024 RMK / SIMBRIEF
Altitude:
(Current/Filed)
34,000ft
Speed:
(Current/Filed)
465kts
Departed: 19-Sep-17 04:50 PM
Arrived: 19-Sep-17 06:00 PM
Distance/Time
Traveled:
320nm/1:10
Distance/Time
To Go:
Arrived

Flight Plot

Page will automatically refresh every two minutes.

Flight plan parsing failed; only flown route is shown


Map Options




Map Legend


Flown Route
Filed Route
Departure Airport
Arrival Airport
Navaid (VOR, NDB)
Fix

Horizontal Profiles

Position Reports

Time Latitude Longitude Heading Altitude Ground
Speed
19-Sep-17 16:28 33.434428 -111.999859 90 1142ft 0kts
19-Sep-17 16:29 33.434428 -111.999859 90 1142ft 0kts
19-Sep-17 16:30 33.434428 -111.999859 90 1142ft 0kts
19-Sep-17 16:31 33.434428 -111.999859 90 1142ft 0kts
19-Sep-17 16:32 33.434428 -111.999859 90 1143ft 0kts
19-Sep-17 16:33 33.434428 -111.999859 90 1143ft 0kts
19-Sep-17 16:34 33.434428 -111.999859 90 1143ft 0kts
19-Sep-17 16:35 33.434428 -111.999859 90 1143ft 0kts
19-Sep-17 16:36 33.434428 -111.999859 90 1143ft 0kts
19-Sep-17 16:37 33.434428 -111.999859 90 1143ft 0kts
19-Sep-17 16:38 33.434428 -111.999859 90 1143ft 0kts
19-Sep-17 16:39 33.434428 -111.999859 90 1143ft 0kts
19-Sep-17 16:40 33.434428 -111.999859 90 1143ft 0kts
19-Sep-17 16:41 33.434428 -111.999859 90 1143ft 0kts
19-Sep-17 16:42 33.434428 -111.999859 90 1143ft 0kts
19-Sep-17 16:43 33.434428 -111.999859 90 1143ft 0kts
19-Sep-17 16:44 33.434428 -111.999862 90 1143ft 0kts
19-Sep-17 16:45 33.434429 -112.000702 89 1143ft 0kts
19-Sep-17 16:46 33.434429 -112.000704 89 1143ft 0kts
19-Sep-17 16:47 33.434429 -112.000704 89 1143ft 0kts
19-Sep-17 16:48 33.433402 -112.000734 179 1143ft 4kts
19-Sep-17 16:49 33.433335 -112.000733 179 1143ft 0kts
19-Sep-17 16:50 33.433333 -112.000733 179 1143ft 0kts
19-Sep-17 16:51 33.432898 -112.000572 117 1143ft 9kts
19-Sep-17 16:52 33.432846 -111.994527 90 1143ft 13kts
19-Sep-17 16:53 33.431802 -111.992970 191 1143ft 5kts
19-Sep-17 16:54 33.431033 -111.996961 270 1143ft 64kts
19-Sep-17 16:55 33.431507 -112.044948 268 2627ft 170kts
19-Sep-17 16:56 33.460974 -112.101526 314 4241ft 256kts
19-Sep-17 16:57 33.519239 -112.162078 319 6829ft 287kts
19-Sep-17 16:58 33.596704 -112.196042 342 9668ft 306kts
19-Sep-17 16:59 33.683507 -112.223147 341 11558ft 351kts
19-Sep-17 17:00 33.783423 -112.255066 341 13527ft 381kts
19-Sep-17 17:01 33.887013 -112.288593 341 16026ft 391kts
19-Sep-17 17:02 33.993565 -112.323397 338 18305ft 400kts
19-Sep-17 17:03 34.087029 -112.393092 316 20346ft 400kts
19-Sep-17 17:04 34.173308 -112.480701 316 22191ft 409kts
19-Sep-17 17:05 34.261472 -112.569998 316 23806ft 418kts
19-Sep-17 17:06 34.351554 -112.660777 317 25279ft 425kts
19-Sep-17 17:07 34.443129 -112.753611 316 26625ft 432kts
19-Sep-17 17:08 34.535637 -112.847924 317 27869ft 438kts
19-Sep-17 17:09 34.629445 -112.943765 316 29050ft 443kts
19-Sep-17 17:10 34.717021 -113.045582 296 30661ft 431kts
19-Sep-17 17:11 34.728412 -113.187784 270 32151ft 427kts
19-Sep-17 17:12 34.732595 -113.331564 273 33616ft 423kts
19-Sep-17 17:13 34.737175 -113.474950 273 33944ft 425kts
19-Sep-17 17:14 34.741540 -113.617453 273 33921ft 422kts
19-Sep-17 17:15 34.746267 -113.760365 273 33892ft 422kts
19-Sep-17 17:16 34.750540 -113.901731 272 33866ft 422kts
19-Sep-17 17:17 34.754631 -114.044589 272 33817ft 422kts
19-Sep-17 17:18 34.758792 -114.187619 272 33786ft 422kts
19-Sep-17 17:19 34.762446 -114.330202 272 33767ft 422kts
19-Sep-17 17:20 34.765972 -114.472822 272 33755ft 422kts
19-Sep-17 17:21 34.769135 -114.615937 272 33749ft 422kts
19-Sep-17 17:22 34.772068 -114.758579 272 33749ft 422kts
19-Sep-17 17:23 34.774865 -114.901226 272 33750ft 421kts
19-Sep-17 17:24 34.777991 -115.044146 272 33754ft 422kts
19-Sep-17 17:25 34.780704 -115.186775 272 33757ft 422kts
19-Sep-17 17:26 34.783186 -115.329433 272 33773ft 422kts
19-Sep-17 17:27 34.785666 -115.472591 272 33789ft 422kts
19-Sep-17 17:28 34.787826 -115.615223 271 33805ft 422kts
19-Sep-17 17:29 34.789634 -115.757532 271 31579ft 420kts
19-Sep-17 17:30 34.792091 -115.898244 272 29177ft 410kts
19-Sep-17 17:31 34.794655 -116.034388 272 27071ft 397kts
19-Sep-17 17:32 34.796844 -116.167314 272 24990ft 387kts
19-Sep-17 17:33 34.796921 -116.296216 268 23898ft 376kts
19-Sep-17 17:34 34.792294 -116.418497 268 23434ft 349kts
19-Sep-17 17:35 34.787856 -116.543584 268 22922ft 386kts
19-Sep-17 17:36 34.776358 -116.672676 264 22063ft 381kts
19-Sep-17 17:37 34.763805 -116.800401 264 21171ft 377kts
19-Sep-17 17:38 34.751232 -116.926233 264 20319ft 373kts
19-Sep-17 17:39 34.738507 -117.050399 264 19498ft 368kts
19-Sep-17 17:40 34.725844 -117.172638 264 18687ft 364kts
19-Sep-17 17:41 34.713591 -117.294129 264 17862ft 360kts
19-Sep-17 17:42 34.701183 -117.414230 263 17101ft 357kts
19-Sep-17 17:43 34.688480 -117.533591 263 16274ft 353kts
19-Sep-17 17:44 34.675980 -117.651371 264 15450ft 350kts
19-Sep-17 17:45 34.663543 -117.768422 263 14633ft 347kts
19-Sep-17 17:46 34.651457 -117.883046 264 13725ft 332kts
19-Sep-17 17:47 34.639450 -117.991060 264 12458ft 315kts
19-Sep-17 17:48 34.625817 -118.094077 257 11227ft 303kts
19-Sep-17 17:49 34.603783 -118.189902 255 10040ft 281kts
19-Sep-17 17:50 34.583372 -118.279972 255 8941ft 275kts
19-Sep-17 17:51 34.563326 -118.369197 255 8033ft 269kts
19-Sep-17 17:52 34.517178 -118.435972 222 7409ft 262kts
19-Sep-17 17:53 34.463169 -118.493059 222 6500ft 244kts
19-Sep-17 17:54 34.415551 -118.543434 222 5995ft 220kts
19-Sep-17 17:55 34.368960 -118.592838 222 5976ft 224kts
19-Sep-17 17:56 34.322004 -118.642388 222 5971ft 226kts
19-Sep-17 17:57 34.274716 -118.692010 222 6017ft 223kts
19-Sep-17 17:58 34.224054 -118.693306 118 5439ft 222kts
19-Sep-17 17:59 34.200410 -118.623812 101 4045ft 217kts
19-Sep-17 18:00 34.200386 -118.556507 90 3782ft 199kts
19-Sep-17 18:01 34.199557 -118.490444 91 2736ft 194kts
19-Sep-17 18:02 34.198733 -118.429788 93 1780ft 161kts
19-Sep-17 18:03 34.198023 -118.378290 93 962ft 148kts
19-Sep-17 18:04 34.197594 -118.350447 132 786ft 7kts
19-Sep-17 18:05 34.197214 -118.352335 271 786ft 12kts
19-Sep-17 18:06 34.196893 -118.355561 200 786ft 5kts
19-Sep-17 18:07 34.195957 -118.355068 110 786ft 0kts
19-Sep-17 18:08 34.195957 -118.355068 110 786ft 0kts
19-Sep-17 18:09 34.195957 -118.355068 110 786ft 0kts
19-Sep-17 18:10 34.195957 -118.355068 110 786ft 0kts

Navigation Log

Ident Type
Flight plan parsing failed, navigation log unavailable